createdAt,value
2022-08-03T00:02:25.929Z,21.00
2022-08-03T00:04:55.633Z,20.93
2022-08-03T00:07:29.231Z,20.90
2022-08-03T00:10:02.246Z,20.87
2022-08-03T00:12:35.264Z,20.82
2022-08-03T00:15:11.398Z,20.85
2022-08-03T00:17:52.720Z,20.84
2022-08-03T00:20:28.286Z,20.88
2022-08-03T00:23:01.602Z,20.86
2022-08-03T00:25:42.260Z,20.86
2022-08-03T00:28:15.257Z,20.82
2022-08-03T00:30:42.405Z,20.84
2022-08-03T00:33:11.455Z,20.83
2022-08-03T00:35:50.382Z,20.79
2022-08-03T00:38:25.254Z,20.75
2022-08-03T00:40:58.279Z,20.72
2022-08-03T00:43:26.786Z,20.70
2022-08-03T00:46:01.230Z,20.62
2022-08-03T00:48:33.531Z,20.59
2022-08-03T00:51:07.237Z,20.59
2022-08-03T00:53:36.263Z,20.57
2022-08-03T00:56:09.241Z,20.57
2022-08-03T00:58:36.088Z,20.55
2022-08-03T01:01:04.835Z,20.53
2022-08-03T01:03:38.229Z,20.54
2022-08-03T01:06:22.252Z,20.53
2022-08-03T01:08:58.807Z,20.50
2022-08-03T01:12:00.631Z,20.49
2022-08-03T01:14:34.148Z,20.43
2022-08-03T01:17:17.247Z,20.41
2022-08-03T01:19:50.876Z,20.33
2022-08-03T01:22:47.270Z,20.26
2022-08-03T01:25:29.583Z,20.27
2022-08-03T01:28:47.253Z,20.23
2022-08-03T01:31:18.994Z,20.23
2022-08-03T01:33:59.248Z,20.23
2022-08-03T01:36:33.962Z,20.22
2022-08-03T01:39:10.260Z,20.21
2022-08-03T01:41:59.647Z,20.24
2022-08-03T01:44:37.242Z,20.21
2022-08-03T01:47:13.228Z,20.15
2022-08-03T01:49:44.551Z,20.14
2022-08-03T01:52:19.553Z,20.07
2022-08-03T01:54:51.115Z,20.04
2022-08-03T01:57:26.224Z,20.01
2022-08-03T01:59:56.293Z,20.00
2022-08-03T02:02:34.486Z,19.98
2022-08-03T02:05:05.917Z,19.95
2022-08-03T02:07:46.219Z,19.89
2022-08-03T02:10:16.277Z,19.88
2022-08-03T02:13:09.275Z,19.89
2022-08-03T02:15:41.381Z,19.87
2022-08-03T02:18:17.251Z,19.89
2022-08-03T02:20:44.738Z,19.86
2022-08-03T02:23:18.234Z,19.87
2022-08-03T02:25:55.339Z,19.84
2022-08-03T02:28:33.243Z,19.89
2022-08-03T02:31:04.853Z,19.81
2022-08-03T02:33:45.242Z,19.75
2022-08-03T02:36:14.920Z,19.74
2022-08-03T02:38:50.253Z,19.73
2022-08-03T02:41:21.194Z,19.73
2022-08-03T02:44:06.333Z,19.78
2022-08-03T02:46:45.244Z,19.71
2022-08-03T02:49:49.522Z,19.68
2022-08-03T02:52:15.792Z,19.68
2022-08-03T02:54:45.353Z,19.69
2022-08-03T02:57:20.241Z,19.68
2022-08-03T02:59:47.741Z,19.68
2022-08-03T03:02:23.208Z,19.69
2022-08-03T03:05:53.360Z,19.68
2022-08-03T03:07:52.261Z,19.69
2022-08-03T03:10:31.242Z,19.68
2022-08-03T03:12:59.484Z,19.64
2022-08-03T03:15:34.221Z,19.62
2022-08-03T03:18:01.945Z,19.63
2022-08-03T03:20:36.231Z,19.60
2022-08-03T03:23:11.223Z,19.61
2022-08-03T03:25:52.370Z,19.59
2022-08-03T03:28:26.218Z,19.60
2022-08-03T03:30:53.524Z,19.61
2022-08-03T03:33:28.733Z,19.58
2022-08-03T03:36:02.252Z,19.54
2022-08-03T03:38:36.237Z,19.50
2022-08-03T03:41:11.237Z,19.46
2022-08-03T03:43:38.382Z,19.48
2022-08-03T03:46:06.245Z,19.46
2022-08-03T03:48:40.215Z,19.42
2022-08-03T03:51:08.038Z,19.42
2022-08-03T03:53:41.262Z,19.45
2022-08-03T03:56:14.227Z,19.45
2022-08-03T03:58:47.243Z,19.41
2022-08-03T04:01:14.329Z,19.36
2022-08-03T04:03:47.228Z,19.39
2022-08-03T04:06:33.432Z,19.42
2022-08-03T04:09:26.222Z,19.41
2022-08-03T04:11:56.810Z,19.39
2022-08-03T04:14:39.201Z,19.41
2022-08-03T04:17:16.227Z,19.42
2022-08-03T04:19:54.215Z,19.41
2022-08-03T04:22:33.226Z,19.39
2022-08-03T04:25:17.228Z,19.40
2022-08-03T04:28:28.382Z,19.40
2022-08-03T04:30:40.282Z,19.42
2022-08-03T04:33:15.207Z,19.41
2022-08-03T04:36:01.167Z,19.41
2022-08-03T04:38:33.048Z,19.41
2022-08-03T04:41:10.377Z,19.43
2022-08-03T04:43:40.751Z,19.42
2022-08-03T04:46:16.227Z,19.52
2022-08-03T04:48:44.835Z,19.58
2022-08-03T04:51:13.835Z,19.59
2022-08-03T04:53:48.202Z,19.56
2022-08-03T04:56:21.215Z,19.58
2022-08-03T04:58:48.907Z,19.64
2022-08-03T05:01:23.374Z,19.66
2022-08-03T05:03:51.588Z,19.67
2022-08-03T05:06:25.292Z,19.73
2022-08-03T05:08:59.256Z,19.71
2022-08-03T05:11:32.206Z,19.72
2022-08-03T05:13:58.871Z,19.75
2022-08-03T05:16:32.205Z,19.70
2022-08-03T05:19:05.200Z,19.70
2022-08-03T05:21:50.405Z,19.70
2022-08-03T05:24:32.227Z,19.69
2022-08-03T05:26:58.987Z,19.74
2022-08-03T05:29:25.902Z,19.75
2022-08-03T05:31:59.180Z,19.80
2022-08-03T05:34:25.891Z,19.77
2022-08-03T05:36:59.211Z,19.84
2022-08-03T05:39:32.184Z,19.84
2022-08-03T05:42:06.213Z,19.82
2022-08-03T05:44:32.920Z,19.93
2022-08-03T05:47:06.222Z,19.99
2022-08-03T05:49:33.065Z,19.98
2022-08-03T05:52:11.693Z,20.09
2022-08-03T05:54:56.517Z,20.10
2022-08-03T05:57:32.214Z,20.07
2022-08-03T06:00:06.210Z,20.05
2022-08-03T06:02:40.247Z,20.19
2022-08-03T06:05:07.747Z,20.36
2022-08-03T06:07:41.208Z,20.31
2022-08-03T06:10:35.426Z,20.31
2022-08-03T06:13:02.200Z,20.40
2022-08-03T06:15:28.937Z,20.33
2022-08-03T06:18:01.445Z,20.38
2022-08-03T06:20:35.194Z,20.36
2022-08-03T06:23:02.062Z,20.43
2022-08-03T06:25:42.262Z,20.49
2022-08-03T06:31:12.210Z,20.60
2022-08-03T06:33:48.353Z,20.60
2022-08-03T06:36:38.210Z,20.66
2022-08-03T06:39:05.443Z,20.71
2022-08-03T06:41:44.707Z,20.71
2022-08-03T06:44:19.239Z,20.71
2022-08-03T06:46:45.974Z,20.76
2022-08-03T06:49:19.233Z,20.78
2022-08-03T06:52:05.717Z,20.82
2022-08-03T06:54:40.185Z,20.83
2022-08-03T06:57:15.219Z,20.93
2022-08-03T07:00:09.957Z,20.99
2022-08-03T07:02:36.190Z,21.11
2022-08-03T07:05:10.194Z,21.09
2022-08-03T07:07:44.423Z,21.19
2022-08-03T07:10:18.551Z,21.24
2022-08-03T07:12:55.642Z,21.27
2022-08-03T07:15:55.571Z,21.37
2022-08-03T07:18:25.660Z,21.38
2022-08-03T07:21:05.214Z,21.44
2022-08-03T07:23:31.943Z,21.49
2022-08-03T07:26:19.195Z,21.54
2022-08-03T07:28:45.960Z,21.56
2022-08-03T07:31:12.710Z,21.65
2022-08-03T07:33:46.198Z,21.69
2022-08-03T07:36:13.084Z,21.75
2022-08-03T07:38:46.224Z,21.78
2022-08-03T07:41:12.892Z,21.88
2022-08-03T07:43:39.667Z,21.93
2022-08-03T07:46:13.195Z,21.97
2022-08-03T07:48:39.988Z,22.02
2022-08-03T07:51:13.211Z,22.09
2022-08-03T07:53:47.882Z,22.15
2022-08-03T07:56:14.809Z,22.20
2022-08-03T07:58:48.417Z,22.26
2022-08-03T08:01:21.298Z,22.31
2022-08-03T08:03:52.616Z,22.36
2022-08-03T08:06:28.357Z,22.44
2022-08-03T08:09:06.379Z,22.50
2022-08-03T08:11:40.242Z,22.55
2022-08-03T08:14:14.174Z,22.63
2022-08-03T08:16:41.256Z,22.70
2022-08-03T08:19:15.394Z,22.77
2022-08-03T08:21:53.569Z,22.85
2022-08-03T08:24:51.174Z,22.89
2022-08-03T08:27:19.158Z,22.97
2022-08-03T08:29:55.312Z,23.06
2022-08-03T08:32:23.424Z,23.12
2022-08-03T08:34:57.189Z,23.15
2022-08-03T08:37:24.112Z,23.24
2022-08-03T08:39:51.543Z,23.32
2022-08-03T08:42:25.201Z,23.39
2022-08-03T08:44:59.288Z,23.44
2022-08-03T08:47:30.246Z,23.53
2022-08-03T08:50:28.374Z,23.60
2022-08-03T08:52:56.909Z,23.68
2022-08-03T08:55:30.223Z,23.75
2022-08-03T08:58:20.870Z,23.84
2022-08-03T09:00:55.513Z,23.93
2022-08-03T09:03:30.376Z,24.01
2022-08-03T09:06:08.352Z,24.13
2022-08-03T09:08:35.710Z,24.18
2022-08-03T09:11:12.019Z,24.28
2022-08-03T09:13:46.221Z,24.35
2022-08-03T09:16:21.542Z,24.44
2022-08-03T09:19:00.215Z,24.48
2022-08-03T09:21:33.309Z,24.56
2022-08-03T09:24:20.611Z,24.66
2022-08-03T09:27:06.172Z,24.71
2022-08-03T09:29:33.772Z,24.81
2022-08-03T09:32:10.166Z,24.83
2022-08-03T09:34:36.925Z,24.83
2022-08-03T09:37:21.349Z,24.87
2022-08-03T09:40:09.304Z,24.93
2022-08-03T09:42:47.197Z,25.01
2022-08-03T09:45:25.958Z,25.05
2022-08-03T09:47:59.200Z,25.12
2022-08-03T09:50:32.174Z,25.21
2022-08-03T09:53:02.269Z,25.26
2022-08-03T09:56:33.818Z,25.27
2022-08-03T09:58:29.168Z,25.32
2022-08-03T10:01:06.140Z,25.36
2022-08-03T10:04:03.625Z,25.39
2022-08-03T10:06:29.338Z,25.46
2022-08-03T10:09:21.199Z,25.54
2022-08-03T10:11:48.718Z,25.57
2022-08-03T10:14:25.192Z,25.62
2022-08-03T10:16:51.994Z,25.74
2022-08-03T10:19:26.186Z,25.79
2022-08-03T10:22:01.322Z,25.88
2022-08-03T10:24:37.204Z,25.97
2022-08-03T10:27:13.406Z,26.03
2022-08-03T10:29:54.169Z,26.11
2022-08-03T10:32:48.395Z,26.15
2022-08-03T10:35:27.182Z,26.21
2022-08-03T10:38:16.932Z,26.22
2022-08-03T10:40:54.564Z,26.27
2022-08-03T10:43:50.196Z,26.37
2022-08-03T10:46:26.208Z,26.42
2022-08-03T10:48:53.963Z,26.49
2022-08-03T10:51:21.737Z,26.50
2022-08-03T10:53:55.836Z,26.59
2022-08-03T10:56:54.313Z,26.71
2022-08-03T10:59:53.211Z,26.73
2022-08-03T11:02:20.068Z,26.78
2022-08-03T11:04:53.152Z,26.87
2022-08-03T11:07:32.169Z,26.98
2022-08-03T11:10:10.235Z,27.07
2022-08-03T11:12:44.191Z,27.24
2022-08-03T11:15:17.159Z,27.30
2022-08-03T11:18:12.827Z,27.33
2022-08-03T11:20:57.371Z,27.14
2022-08-03T11:24:05.592Z,27.30
2022-08-03T11:26:46.225Z,27.41
2022-08-03T11:29:27.544Z,27.42
2022-08-03T11:32:01.196Z,27.47
2022-08-03T11:34:27.950Z,27.52
2022-08-03T11:37:33.363Z,27.51
2022-08-03T11:40:07.172Z,27.61
2022-08-03T11:42:40.169Z,27.81
2022-08-03T11:45:14.166Z,27.91
2022-08-03T11:47:50.916Z,27.89
2022-08-03T11:50:26.142Z,27.92
2022-08-03T11:53:01.203Z,28.01
2022-08-03T11:55:37.150Z,27.88
2022-08-03T11:58:58.058Z,27.95
2022-08-03T12:00:58.168Z,27.95
2022-08-03T12:03:31.203Z,28.12
2022-08-03T12:05:57.965Z,28.00
2022-08-03T12:08:34.349Z,28.14
2022-08-03T12:11:12.233Z,28.33
2022-08-03T12:14:43.785Z,28.48
2022-08-03T12:16:36.892Z,28.52
2022-08-03T12:19:13.216Z,28.67
2022-08-03T12:21:56.854Z,28.83
2022-08-03T12:24:31.201Z,28.84
2022-08-03T12:27:04.274Z,28.99
2022-08-03T12:29:44.170Z,29.00
2022-08-03T12:32:26.123Z,29.18
2022-08-03T12:35:00.045Z,29.33
2022-08-03T12:37:27.472Z,29.49
2022-08-03T12:40:09.453Z,29.65
2022-08-03T12:42:39.671Z,29.66
2022-08-03T12:45:27.168Z,29.72
2022-08-03T12:48:03.156Z,29.78
2022-08-03T12:50:32.875Z,29.98
2022-08-03T12:53:13.381Z,30.17
2022-08-03T12:56:04.219Z,30.17
2022-08-03T12:58:40.191Z,30.27
2022-08-03T13:01:09.889Z,30.38
2022-08-03T13:03:53.242Z,30.53
2022-08-03T13:06:27.809Z,30.50
2022-08-03T13:10:11.568Z,30.55
2022-08-03T13:15:56.262Z,30.81
2022-08-03T13:18:23.149Z,30.96
2022-08-03T13:20:56.153Z,30.86
2022-08-03T13:23:23.044Z,31.03
2022-08-03T13:25:57.560Z,31.26
2022-08-03T13:28:31.286Z,31.33
2022-08-03T13:31:04.188Z,31.31
2022-08-03T13:33:40.148Z,31.36
2022-08-03T13:36:07.267Z,31.33
2022-08-03T13:38:40.219Z,31.40
2022-08-03T13:41:07.072Z,31.31
2022-08-03T13:43:40.238Z,31.24
2022-08-03T13:46:06.937Z,31.10
2022-08-03T13:48:37.375Z,30.95
2022-08-03T13:51:22.566Z,30.92
2022-08-03T13:53:58.137Z,30.96
2022-08-03T13:56:31.232Z,31.05
2022-08-03T13:58:58.475Z,31.26
2022-08-03T14:01:54.047Z,31.42
2022-08-03T14:04:22.292Z,31.31
2022-08-03T14:06:56.178Z,31.31
2022-08-03T14:09:30.159Z,31.27
2022-08-03T14:12:07.337Z,31.17
2022-08-03T14:14:43.530Z,31.16
2022-08-03T14:17:10.306Z,31.16
2022-08-03T14:19:53.523Z,30.87
2022-08-03T14:22:28.195Z,30.79
2022-08-03T14:25:15.155Z,30.66
2022-08-03T14:27:50.208Z,30.58
2022-08-03T14:30:17.003Z,30.49
2022-08-03T14:32:50.219Z,30.37
2022-08-03T14:35:17.129Z,30.17
2022-08-03T14:37:50.174Z,30.28
2022-08-03T14:40:17.007Z,30.24
2022-08-03T14:42:43.976Z,30.11
2022-08-03T14:45:20.454Z,30.00
2022-08-03T14:50:33.885Z,30.03
2022-08-03T14:50:46.824Z,29.64
2022-08-03T14:53:24.167Z,29.52
2022-08-03T14:55:59.164Z,29.59
2022-08-03T14:58:33.166Z,29.54
2022-08-03T15:00:59.940Z,29.52
2022-08-03T15:03:33.291Z,29.58
2022-08-03T15:06:06.176Z,29.57
2022-08-03T15:08:33.021Z,29.46
2022-08-03T15:11:06.528Z,29.46
2022-08-03T15:13:33.426Z,29.47
2022-08-03T15:16:07.151Z,29.49
2022-08-03T15:18:34.144Z,29.54
2022-08-03T15:21:08.159Z,29.48
2022-08-03T15:23:47.468Z,29.54
2022-08-03T15:26:33.892Z,29.55
2022-08-03T15:30:05.829Z,29.47
2022-08-03T15:32:10.183Z,29.42
2022-08-03T15:34:50.038Z,29.39
2022-08-03T15:37:17.280Z,29.35
2022-08-03T15:39:59.887Z,29.34
2022-08-03T15:42:38.192Z,29.29
2022-08-03T15:45:05.533Z,29.27
2022-08-03T15:47:39.197Z,29.20
2022-08-03T15:50:13.160Z,29.16
2022-08-03T15:52:39.918Z,29.12
2022-08-03T15:55:15.995Z,29.11
2022-08-03T15:59:09.576Z,29.14
2022-08-03T16:00:37.155Z,29.16
2022-08-03T16:03:04.296Z,29.12
2022-08-03T16:05:38.182Z,29.10
2022-08-03T16:08:07.103Z,29.06
2022-08-03T16:10:37.147Z,29.09
2022-08-03T16:13:10.188Z,29.05
2022-08-03T16:15:45.150Z,29.08
2022-08-03T16:18:12.210Z,29.08
2022-08-03T16:20:38.972Z,29.03
2022-08-03T16:23:15.137Z,28.99
2022-08-03T16:25:49.561Z,29.01
2022-08-03T16:28:23.173Z,29.00
2022-08-03T16:30:49.906Z,28.94
2022-08-03T16:33:17.835Z,28.95
2022-08-03T16:35:53.148Z,28.94
2022-08-03T16:38:20.241Z,28.89
2022-08-03T16:40:51.961Z,28.91
2022-08-03T16:43:29.189Z,28.93
2022-08-03T16:45:56.587Z,28.94
2022-08-03T16:48:30.150Z,28.95
2022-08-03T16:50:56.930Z,28.99
2022-08-03T16:53:42.137Z,29.02
2022-08-03T16:56:17.136Z,29.06
2022-08-03T16:58:51.147Z,29.05
2022-08-03T17:01:23.570Z,29.04
2022-08-03T17:04:03.533Z,29.03
2022-08-03T17:06:44.791Z,29.18
2022-08-03T17:09:25.157Z,29.27
2022-08-03T17:11:52.288Z,29.38
2022-08-03T17:14:40.143Z,29.47
2022-08-03T17:17:22.288Z,29.50
2022-08-03T17:19:59.731Z,29.46
2022-08-03T17:22:39.315Z,29.50
2022-08-03T17:25:21.949Z,29.46
2022-08-03T17:28:48.124Z,29.45
2022-08-03T17:31:23.070Z,29.36
2022-08-03T17:34:07.197Z,29.24
2022-08-03T17:37:02.564Z,29.11
2022-08-03T17:39:55.663Z,28.98
2022-08-03T17:42:29.989Z,28.81
2022-08-03T17:47:57.195Z,28.52
2022-08-03T17:50:41.197Z,28.42
2022-08-03T17:53:24.213Z,28.26
2022-08-03T17:56:44.332Z,28.09
2022-08-03T17:59:51.520Z,27.98
2022-08-03T18:02:40.808Z,27.88
2022-08-03T18:05:24.177Z,27.76
2022-08-03T18:08:12.959Z,27.65
2022-08-03T18:10:50.013Z,27.57
2022-08-03T18:13:30.333Z,27.48
2022-08-03T18:16:09.162Z,27.38
2022-08-03T18:18:40.652Z,27.29
2022-08-03T18:21:18.180Z,27.20
2022-08-03T18:23:52.187Z,27.11
2022-08-03T18:26:34.157Z,27.02
2022-08-03T18:29:13.599Z,26.91
2022-08-03T18:32:03.439Z,26.83
2022-08-03T18:34:51.856Z,26.75
2022-08-03T18:37:31.169Z,26.66
2022-08-03T18:40:25.146Z,26.55
2022-08-03T18:43:08.875Z,26.47
2022-08-03T18:45:57.462Z,26.37
2022-08-03T18:48:52.245Z,26.28
2022-08-03T18:51:28.539Z,26.20
2022-08-03T18:54:45.514Z,26.13
2022-08-03T18:57:30.413Z,26.05
2022-08-03T19:00:17.165Z,25.97
2022-08-03T19:03:01.195Z,25.90
2022-08-03T19:05:56.235Z,25.85
2022-08-03T19:08:47.227Z,25.77
2022-08-03T19:12:13.189Z,25.72
2022-08-03T19:14:28.720Z,25.65
2022-08-03T19:17:12.133Z,25.62
2022-08-03T19:19:45.286Z,25.57
2022-08-03T19:22:20.372Z,25.52
2022-08-03T19:24:49.319Z,25.48
2022-08-03T19:27:29.158Z,25.44
2022-08-03T19:30:02.071Z,25.39
2022-08-03T19:32:39.144Z,25.34
2022-08-03T19:35:46.668Z,25.30
2022-08-03T19:38:17.147Z,25.26
2022-08-03T19:41:07.150Z,25.18
2022-08-03T19:46:56.165Z,25.07
2022-08-03T19:50:04.709Z,25.01
2022-08-03T19:52:24.345Z,24.95
2022-08-03T19:55:00.492Z,24.89
2022-08-03T19:57:35.161Z,24.85
2022-08-03T20:00:05.542Z,24.79
2022-08-03T20:02:40.132Z,24.73
2022-08-03T20:05:15.862Z,24.69
2022-08-03T20:07:50.146Z,24.61
2022-08-03T20:10:24.137Z,24.59
2022-08-03T20:12:57.159Z,24.55
2022-08-03T20:15:32.195Z,24.50
2022-08-03T20:18:16.878Z,24.49
2022-08-03T20:20:48.454Z,24.43
2022-08-03T20:23:26.306Z,24.40
2022-08-03T20:26:19.194Z,24.33
2022-08-03T20:29:10.103Z,24.27
2022-08-03T20:31:44.346Z,24.19
2022-08-03T20:34:11.171Z,24.13
2022-08-03T20:36:51.131Z,24.11
2022-08-03T20:39:17.891Z,24.12
2022-08-03T20:41:45.518Z,24.11
2022-08-03T20:44:19.130Z,24.09
2022-08-03T20:47:00.909Z,24.04
2022-08-03T20:49:45.917Z,23.97
2022-08-03T20:52:18.421Z,23.92
2022-08-03T20:54:54.154Z,23.90
2022-08-03T20:57:21.790Z,23.87
2022-08-03T20:59:56.139Z,23.82
2022-08-03T21:02:30.365Z,23.78
2022-08-03T21:05:09.275Z,23.73
2022-08-03T21:08:04.921Z,23.70
2022-08-03T21:10:40.645Z,23.66
2022-08-03T21:12:55.019Z,28.67
2022-08-03T21:13:02.803Z,25.13
2022-08-03T21:13:54.445Z,23.63
2022-08-03T21:16:33.145Z,23.56
2022-08-03T21:19:03.400Z,23.55
2022-08-03T21:21:39.135Z,23.53
2022-08-03T21:24:08.301Z,23.50
2022-08-03T21:26:49.128Z,23.45
2022-08-03T21:29:23.242Z,23.38
2022-08-03T21:31:57.174Z,23.32
2022-08-03T21:34:24.567Z,23.31
2022-08-03T21:36:58.151Z,23.28
2022-08-03T21:39:25.132Z,23.30
2022-08-03T21:41:58.145Z,23.30
2022-08-03T21:44:28.661Z,23.20
2022-08-03T21:47:04.156Z,23.16
2022-08-03T21:50:05.316Z,23.20
2022-08-03T21:52:29.127Z,23.20
2022-08-03T21:55:05.134Z,23.19
2022-08-03T21:57:34.265Z,23.10
2022-08-03T22:00:23.179Z,23.03
2022-08-03T22:03:12.004Z,23.08
2022-08-03T22:05:51.120Z,23.02
2022-08-03T22:08:24.115Z,23.01
2022-08-03T22:10:51.222Z,22.95
2022-08-03T22:13:43.755Z,22.91
2022-08-03T22:16:11.297Z,22.88
2022-08-03T22:18:46.140Z,22.87
2022-08-03T22:21:27.902Z,22.83
2022-08-03T22:24:05.880Z,22.82
2022-08-03T22:26:40.126Z,22.77
2022-08-03T22:29:13.609Z,22.76
2022-08-03T22:31:58.531Z,22.68
2022-08-03T22:34:27.444Z,22.67
2022-08-03T22:37:08.129Z,22.66
2022-08-03T22:39:44.337Z,22.52
2022-08-03T22:42:18.145Z,22.52
2022-08-03T22:44:54.069Z,22.51
2022-08-03T22:47:23.050Z,22.51
2022-08-03T22:50:33.399Z,22.54
2022-08-03T22:52:48.216Z,22.48
2022-08-03T22:55:18.847Z,22.46
2022-08-03T22:57:59.135Z,22.45
2022-08-03T23:00:26.156Z,22.39
2022-08-03T23:03:03.351Z,22.36
2022-08-03T23:06:02.556Z,22.34
2022-08-03T23:08:37.137Z,22.31
2022-08-03T23:11:15.109Z,22.32
2022-08-03T23:13:49.102Z,22.29
2022-08-03T23:16:27.939Z,22.18
2022-08-03T23:19:16.708Z,22.10
2022-08-03T23:22:00.561Z,22.05
2022-08-03T23:24:41.108Z,22.10
2022-08-03T23:27:22.402Z,22.16
2022-08-03T23:29:58.859Z,22.12
2022-08-03T23:32:33.109Z,22.14
2022-08-03T23:36:28.014Z,22.13
2022-08-03T23:38:22.940Z,22.19
2022-08-03T23:40:57.135Z,22.16
2022-08-03T23:43:52.449Z,22.16
2022-08-03T23:46:32.205Z,22.06
2022-08-03T23:49:00.244Z,22.12
2022-08-03T23:51:33.228Z,22.09
2022-08-03T23:54:09.902Z,22.02
2022-08-03T23:56:57.113Z,22.03
